Time;durP1;ratioP1;P1;durP2;ratioP2;P2;SDS_P1;SDS_P2;PMS_P1;PMS_P2;Temp;Humidity;BMP_temperature;BMP_pressure;BME280_temperature;BME280_humidity;BME280_pressure;Samples;Min_cycle;Max_cycle;Signal;HPM_P1;HPM_P2
2023/09/24 00:00:33;;;;;;;7.47;1.58;;;;;;;23.93;48.75;98653.31;2063740;28;20077;-62
2023/09/24 00:01:35;;;;;;;6.38;1.45;;;;;;;23.94;48.85;98644.16;2066357;28;20476;-63
2023/09/24 00:02:38;;;;;;;7.20;1.60;;;;;;;23.93;48.49;98646.03;2068525;28;20050;-63
2023/09/24 00:03:40;;;;;;;3.72;1.63;;;;;;;23.96;47.20;98644.72;2066872;28;20042;-63
2023/09/24 00:04:42;;;;;;;4.28;1.58;;;;;;;23.92;48.46;98647.09;2066401;28;20512;-63
2023/09/24 00:05:46;;;;;;;3.80;1.40;;;;;;;23.93;48.83;98648.75;2061086;28;20073;-63
2023/09/24 00:06:47;;;;;;;6.35;1.95;;;;;;;23.93;48.22;98647.91;2066121;28;20052;-63
2023/09/24 00:07:49;;;;;;;4.03;1.15;;;;;;;23.86;47.96;98656.97;2066199;28;20061;-62
2023/09/24 00:08:52;;;;;;;7.15;2.33;;;;;;;23.83;47.47;98652.03;2064787;28;20046;-63
2023/09/24 00:09:54;;;;;;;6.13;1.67;;;;;;;23.84;47.97;98650.97;2059695;28;20054;-63
2023/09/24 00:10:55;;;;;;;6.97;2.17;;;;;;;23.84;47.50;98656.38;2063944;28;20386;-63
2023/09/24 00:11:58;;;;;;;4.82;1.50;;;;;;;23.80;46.17;98659.81;2064815;28;20053;-63
2023/09/24 00:12:59;;;;;;;6.22;1.10;;;;;;;23.80;45.98;98655.22;2063887;28;20054;-63
2023/09/24 00:14:00;;;;;;;3.47;1.27;;;;;;;23.77;46.62;98663.84;2061686;28;20058;-63
2023/09/24 00:15:02;;;;;;;3.20;1.42;;;;;;;23.77;47.88;98663.00;2066602;28;20050;-62
2023/09/24 00:16:06;;;;;;;2.25;0.90;;;;;;;23.76;45.19;98662.16;2065867;28;20058;-62
2023/09/24 00:17:09;;;;;;;2.30;1.00;;;;;;;23.73;47.07;98668.06;2065877;28;20062;-62
2023/09/24 00:18:10;;;;;;;3.42;1.08;;;;;;;23.74;45.52;98669.72;2064038;28;20085;-63
2023/09/24 00:19:13;;;;;;;1.85;1.10;;;;;;;23.72;44.25;98674.53;2063130;28;21026;-63
2023/09/24 00:20:15;;;;;;;5.05;1.40;;;;;;;23.73;45.15;98669.94;2063415;28;20050;-63
2023/09/24 00:21:18;;;;;;;5.40;1.42;;;;;;;23.71;44.36;98683.75;2062236;28;20064;-62
2023/09/24 00:22:19;;;;;;;6.00;1.55;;;;;;;23.70;44.24;98681.22;2066331;28;20046;-63
2023/09/24 00:23:20;;;;;;;1.98;0.90;;;;;;;23.68;44.11;98677.91;2063674;28;20664;-63
2023/09/24 00:24:23;;;;;;;3.00;0.90;;;;;;;23.69;44.74;98680.41;2064146;28;20045;-63
2023/09/24 00:25:26;;;;;;;4.40;2.03;;;;;;;23.69;43.90;98676.88;2066758;28;20080;-63
2023/09/24 00:26:27;;;;;;;3.47;1.50;;;;;;;23.70;43.97;98679.34;2064014;28;20054;-62
2023/09/24 00:27:29;;;;;;;6.97;1.67;;;;;;;23.71;44.21;98677.47;2066400;28;20394;-63
2023/09/24 00:28:30;;;;;;;5.13;1.52;;;;;;;23.69;43.72;98672.28;2064692;28;20578;-63
2023/09/24 00:29:32;;;;;;;2.60;0.90;;;;;;;23.68;43.75;98673.34;2064130;28;20129;-63
2023/09/24 00:30:34;;;;;;;4.43;1.48;;;;;;;23.66;43.59;98672.75;2063368;28;20061;-62
2023/09/24 00:31:36;;;;;;;5.20;1.63;;;;;;;23.67;43.27;98673.56;2064874;28;20050;-62
2023/09/24 00:32:37;;;;;;;4.43;0.85;;;;;;;23.67;43.69;98673.56;2065816;28;20540;-62
2023/09/24 00:33:38;;;;;;;2.40;1.40;;;;;;;23.65;43.16;98676.50;2062663;28;20074;-62
2023/09/24 00:34:39;;;;;;;3.58;1.10;;;;;;;23.63;42.84;98684.06;2062803;28;20049;-62
2023/09/24 00:35:41;;;;;;;3.63;1.33;;;;;;;23.66;42.74;98682.75;2065141;28;20564;-62
2023/09/24 00:36:42;;;;;;;4.00;0.80;;;;;;;23.64;42.78;98681.09;2066420;28;20117;-62
2023/09/24 00:37:44;;;;;;;2.72;0.90;;;;;;;23.61;42.42;98686.16;2063590;28;20050;-62
2023/09/24 00:38:45;;;;;;;4.65;1.08;;;;;;;23.60;42.68;98688.06;2062926;28;20046;-62
2023/09/24 00:39:47;;;;;;;4.28;1.83;;;;;;;23.60;42.65;98682.63;2065881;28;20157;-63
2023/09/24 00:40:49;;;;;;;3.47;1.83;;;;;;;23.61;42.79;98686.16;2064338;28;20077;-62
2023/09/24 00:41:50;;;;;;;2.47;1.10;;;;;;;23.60;42.29;98690.75;2065613;28;20042;-63
2023/09/24 00:42:53;;;;;;;3.40;1.42;;;;;;;23.58;42.30;98684.75;2065961;28;20126;-63
2023/09/24 00:43:54;;;;;;;8.38;1.65;;;;;;;23.63;43.10;98690.28;2064289;28;20050;-63
2023/09/24 00:44:56;;;;;;;2.95;1.38;;;;;;;23.60;42.30;98682.63;2063165;28;20077;-63
2023/09/24 00:45:58;;;;;;;3.53;1.05;;;;;;;23.60;42.15;98688.06;2064063;28;20882;-63
2023/09/24 00:47:00;;;;;;;5.85;1.30;;;;;;;23.61;41.93;98686.16;2064680;28;20053;-62
2023/09/24 00:48:01;;;;;;;4.05;0.98;;;;;;;23.59;42.07;98680.97;2065126;28;20046;-63
2023/09/24 00:49:03;;;;;;;2.10;1.02;;;;;;;23.60;41.97;98684.53;2066101;28;20058;-63
2023/09/24 00:50:07;;;;;;;1.80;0.90;;;;;;;23.59;41.91;98680.97;2060404;28;20055;-63
2023/09/24 00:51:15;;;;;;;4.22;1.17;;;;;;;23.60;42.09;98677.22;2065781;28;20141;-63
2023/09/24 00:52:17;;;;;;;3.83;1.45;;;;;;;23.59;42.33;98680.16;2067166;28;20799;-63
2023/09/24 00:53:19;;;;;;;5.55;0.93;;;;;;;23.58;42.09;98686.63;2062932;28;20528;-63
2023/09/24 00:54:21;;;;;;;1.95;0.80;;;;;;;23.58;42.00;98687.47;2061807;28;20061;-63
2023/09/24 00:55:24;;;;;;;3.22;1.15;;;;;;;23.57;41.82;98683.13;2063924;28;20681;-63
2023/09/24 00:56:28;;;;;;;2.90;1.45;;;;;;;23.61;41.91;98688.88;2063141;28;20045;-63
2023/09/24 00:57:32;;;;;;;1.52;1.02;;;;;;;23.58;42.04;98690.16;2062684;28;20441;-63
2023/09/24 00:58:35;;;;;;;2.88;0.90;;;;;;;23.57;42.11;98687.72;2065156;28;20054;-63
2023/09/24 00:59:38;;;;;;;4.82;1.20;;;;;;;23.56;41.90;98681.44;2067857;28;20421;-63
2023/09/24 01:00:39;;;;;;;5.90;0.90;;;;;;;23.58;41.63;98687.47;2063530;28;20080;-63
2023/09/24 01:01:41;;;;;;;1.17;0.70;;;;;;;23.54;41.54;98689.00;2062981;28;20054;-62
2023/09/24 01:02:44;;;;;;;3.95;0.93;;;;;;;23.53;41.70;98689.22;2062921;28;20042;-63
2023/09/24 01:03:48;;;;;;;2.08;0.80;;;;;;;23.56;41.92;98686.88;2065160;28;20050;-62
2023/09/24 01:04:50;;;;;;;4.78;0.82;;;;;;;23.54;41.46;98685.44;2060672;28;20078;-62
2023/09/24 01:05:53;;;;;;;2.20;1.02;;;;;;;23.50;41.82;98690.50;2058336;28;20057;-62
2023/09/24 01:06:56;;;;;;;2.08;0.60;;;;;;;23.53;41.93;98691.94;2065092;28;20455;-63
2023/09/24 01:07:57;;;;;;;5.20;1.02;;;;;;;23.53;41.94;98692.75;2061887;28;20053;-62
2023/09/24 01:08:59;;;;;;;4.55;1.05;;;;;;;23.54;41.92;98704.41;2066198;28;20141;-63
2023/09/24 01:10:00;;;;;;;1.27;0.77;;;;;;;23.54;42.02;98698.97;2062345;28;20050;-63
2023/09/24 01:11:03;;;;;;;2.67;1.25;;;;;;;23.57;42.09;98699.38;2065247;28;20116;-62
2023/09/24 01:12:06;;;;;;;2.55;0.98;;;;;;;23.53;42.19;98698.16;2066452;28;20528;-62
2023/09/24 01:13:07;;;;;;;2.42;0.90;;;;;;;23.52;41.65;98693.00;2065553;28;20049;-62
2023/09/24 01:14:09;;;;;;;1.85;0.90;;;;;;;23.51;41.96;98694.84;2060948;28;20089;-62
2023/09/24 01:15:13;;;;;;;3.55;0.73;;;;;;;23.55;41.55;98697.94;2061949;28;20520;-63
2023/09/24 01:16:15;;;;;;;3.22;0.68;;;;;;;23.55;41.58;98695.25;2066165;28;20575;-62
2023/09/24 01:17:17;;;;;;;2.45;1.13;;;;;;;23.55;41.66;98695.25;2064404;28;20111;-63
2023/09/24 01:18:20;;;;;;;2.17;0.95;;;;;;;23.55;41.87;98689.81;2063711;28;20461;-63
2023/09/24 01:19:23;;;;;;;2.60;0.93;;;;;;;23.50;41.82;98693.22;2064580;28;20050;-62
2023/09/24 01:20:28;;;;;;;2.22;0.63;;;;;;;23.53;42.24;98695.47;2066880;28;21287;-62
2023/09/24 01:21:30;;;;;;;3.10;0.93;;;;;;;23.52;42.14;98693.00;2066741;28;20041;-62
2023/09/24 01:22:37;;;;;;;3.25;0.90;;;;;;;23.55;41.72;98693.34;2063849;28;20052;-63
2023/09/24 01:23:38;;;;;;;2.95;0.82;;;;;;;23.49;41.60;98688.88;2061788;28;20057;-63
2023/09/24 01:24:43;;;;;;;1.52;0.82;;;;;;;23.52;42.34;98691.13;2066852;28;20468;-63
2023/09/24 01:25:44;;;;;;;2.17;0.65;;;;;;;23.53;41.98;98692.75;2061226;28;20058;-64
2023/09/24 01:26:46;;;;;;;4.07;0.90;;;;;;;23.51;41.79;98694.84;2066372;28;20899;-63
2023/09/24 01:27:48;;;;;;;2.85;0.88;;;;;;;23.53;42.48;98692.75;2064849;28;20103;-63
2023/09/24 01:28:51;;;;;;;1.42;0.88;;;;;;;23.51;41.43;98699.44;2065177;28;20050;-63
2023/09/24 01:29:53;;;;;;;1.85;0.82;;;;;;;23.51;41.84;98702.16;2064898;28;20066;-63
2023/09/24 01:30:55;;;;;;;3.15;0.90;;;;;;;23.52;42.24;98690.28;2063466;28;20085;-63
2023/09/24 01:31:55;;;;;;;2.42;0.90;;;;;;;23.51;41.75;98692.16;2065810;28;20053;-63
2023/09/24 01:32:58;;;;;;;3.42;1.00;;;;;;;23.50;41.89;98697.81;2067326;28;20135;-63
2023/09/24 01:33:59;;;;;;;1.40;0.65;;;;;;;23.49;41.96;98698.88;2062886;28;20147;-62
2023/09/24 01:35:06;;;;;;;3.85;0.80;;;;;;;23.52;41.87;98696.53;2061671;28;20405;-63
2023/09/24 01:36:09;;;;;;;4.95;1.23;;;;;;;23.53;42.49;98700.06;2062704;28;20104;-62
2023/09/24 01:37:11;;;;;;;3.55;1.00;;;;;;;23.53;42.31;98705.47;2065505;28;20073;-63
2023/09/24 01:38:13;;;;;;;1.55;1.02;;;;;;;23.49;41.67;98704.31;2063721;28;20161;-63
2023/09/24 01:39:17;;;;;;;3.08;0.85;;;;;;;23.51;41.83;98704.88;2062384;28;20054;-63
2023/09/24 01:40:21;;;;;;;1.88;0.75;;;;;;;23.49;42.68;98704.31;2063886;28;20055;-63
2023/09/24 01:41:25;;;;;;;2.38;0.73;;;;;;;23.44;41.96;98704.16;2065995;28;20045;-63
2023/09/24 01:42:26;;;;;;;3.78;0.82;;;;;;;23.48;42.51;98702.63;2061368;28;20053;-63
2023/09/24 01:43:28;;;;;;;2.05;0.98;;;;;;;23.51;42.15;98702.16;2064554;28;20049;-63
2023/09/24 01:44:29;;;;;;;1.58;0.90;;;;;;;23.49;41.97;98707.00;2064453;28;20056;-63
2023/09/24 01:45:33;;;;;;;1.90;1.00;;;;;;;23.51;42.87;98702.97;2064643;28;20070;-63
2023/09/24 01:46:34;;;;;;;3.35;1.05;;;;;;;23.47;41.65;98699.09;2065643;28;20137;-62
2023/09/24 01:47:36;;;;;;;2.65;0.85;;;;;;;23.47;41.82;98701.81;2065382;28;20053;-63
2023/09/24 01:48:37;;;;;;;1.52;1.08;;;;;;;23.47;42.39;98698.28;2064190;28;20042;-63
2023/09/24 01:49:39;;;;;;;2.50;1.38;;;;;;;23.46;42.07;98702.88;2064456;28;20048;-62
2023/09/24 01:50:41;;;;;;;1.80;0.82;;;;;;;23.47;41.77;98701.81;2062773;28;20042;-63
2023/09/24 01:51:44;;;;;;;2.85;0.90;;;;;;;23.47;42.22;98704.53;2064137;28;20486;-64
2023/09/24 01:52:45;;;;;;;1.33;0.60;;;;;;;23.46;41.92;98702.88;2063918;28;20100;-63
2023/09/24 01:53:49;;;;;;;2.35;1.45;;;;;;;23.45;41.78;98700.41;2060969;28;20046;-63
2023/09/24 01:54:49;;;;;;;2.53;0.70;;;;;;;23.44;42.17;98693.34;2063573;28;20104;-63
2023/09/24 01:55:51;;;;;;;2.72;1.02;;;;;;;23.45;41.77;98692.28;2063218;28;20054;-63
2023/09/24 01:56:54;;;;;;;2.00;0.90;;;;;;;23.46;41.77;98696.63;2064147;28;20142;-63
2023/09/24 01:57:57;;;;;;;3.90;0.90;;;;;;;23.44;42.09;98698.75;2063866;28;20121;-63
2023/09/24 01:58:59;;;;;;;1.48;0.95;;;;;;;23.42;42.04;98694.38;2056112;28;20497;-63
2023/09/24 02:00:16;;;;;;;1.27;1.00;;;;;;;23.45;41.91;98701.22;2059558;28;20687;-63
2023/09/24 02:01:20;;;;;;;4.97;1.33;;;;;;;23.44;42.70;98696.88;2064620;28;20050;-62
2023/09/24 02:02:21;;;;;;;2.15;0.75;;;;;;;23.46;42.06;98696.63;2061659;28;20084;-63
2023/09/24 02:03:23;;;;;;;4.32;1.15;;;;;;;23.45;42.10;98703.09;2065049;28;20050;-63
2023/09/24 02:04:25;;;;;;;2.33;0.98;;;;;;;23.46;42.20;98707.44;2061860;28;20054;-63
2023/09/24 02:05:32;;;;;;;3.33;0.80;;;;;;;23.42;41.47;98698.97;2063946;28;20050;-63
2023/09/24 02:06:34;;;;;;;2.55;0.80;;;;;;;23.44;42.11;98709.59;2062822;28;20163;-63
2023/09/24 02:07:38;;;;;;;2.83;1.08;;;;;;;23.45;42.34;98706.63;2065410;28;20104;-62
2023/09/24 02:08:39;;;;;;;1.20;0.65;;;;;;;23.41;42.19;98702.75;2058937;28;20053;-63
2023/09/24 02:09:42;;;;;;;1.20;0.60;;;;;;;23.41;41.70;98703.56;2061687;28;20792;-63
2023/09/24 02:10:44;;;;;;;4.78;1.08;;;;;;;23.39;41.35;98702.97;2064508;28;20054;-63
2023/09/24 02:11:45;;;;;;;2.08;0.80;;;;;;;23.38;41.68;98703.22;2063532;28;20428;-63
2023/09/24 02:12:47;;;;;;;1.48;0.73;;;;;;;23.38;41.59;98704.03;2063247;28;20072;-63
2023/09/24 02:13:49;;;;;;;0.75;0.50;;;;;;;23.40;41.70;98709.22;2064658;28;20038;-63
2023/09/24 02:14:50;;;;;;;3.92;1.20;;;;;;;23.39;41.66;98702.97;2063448;28;20054;-63
2023/09/24 02:15:52;;;;;;;1.95;1.20;;;;;;;23.43;41.99;98706.06;2060881;28;20125;-63
2023/09/24 02:16:55;;;;;;;1.65;0.98;;;;;;;23.43;41.75;98706.06;2062173;28;20060;-63
2023/09/24 02:17:57;;;;;;;5.90;0.73;;;;;;;23.40;41.95;98704.66;2065233;28;20053;-62
2023/09/24 02:18:58;;;;;;;4.68;1.75;;;;;;;23.42;41.92;98707.09;2065618;28;20045;-63
2023/09/24 02:20:02;;;;;;;1.50;0.70;;;;;;;23.41;41.59;98708.16;2064998;28;20084;-63
2023/09/24 02:21:14;;;;;;;2.20;1.05;;;;;;;23.37;41.51;98705.09;2062775;28;20498;-63
2023/09/24 02:22:17;;;;;;;4.60;1.13;;;;;;;23.36;41.85;98708.03;2063783;28;20514;-60
2023/09/24 02:23:19;;;;;;;2.33;0.80;;;;;;;23.38;41.69;98709.47;2067144;28;20072;-62
2023/09/24 02:24:20;;;;;;;2.15;0.95;;;;;;;23.37;41.98;98705.09;2059488;28;20053;-63
2023/09/24 02:25:24;;;;;;;2.42;1.13;;;;;;;23.37;41.73;98713.22;2065117;28;20057;-63
2023/09/24 02:26:25;;;;;;;1.27;0.65;;;;;;;23.41;42.41;98705.47;2062448;28;20050;-63
2023/09/24 02:27:27;;;;;;;3.22;0.80;;;;;;;23.40;42.46;98710.06;2060391;28;20057;-63
2023/09/24 02:28:28;;;;;;;2.50;0.80;;;;;;;23.43;41.85;98711.47;2064752;28;20054;-63
2023/09/24 02:29:29;;;;;;;2.20;0.85;;;;;;;23.38;42.46;98712.16;2062454;28;20162;-62
2023/09/24 02:30:31;;;;;;;1.65;0.80;;;;;;;23.42;42.54;98717.94;2065405;28;20045;-63
2023/09/24 02:31:33;;;;;;;2.72;0.77;;;;;;;23.40;42.75;98715.47;2064080;28;20057;-63
2023/09/24 02:32:34;;;;;;;1.25;0.73;;;;;;;23.43;44.00;98714.19;2064498;28;20050;-63
2023/09/24 02:33:36;;;;;;;2.08;1.42;;;;;;;23.43;43.35;98719.59;2062732;28;20054;-63
2023/09/24 02:34:38;;;;;;;2.60;0.93;;;;;;;23.40;43.10;98712.75;2063279;28;20057;-62
2023/09/24 02:35:39;;;;;;;2.58;0.95;;;;;;;23.42;43.77;98718.75;2062631;28;20513;-62
2023/09/24 02:36:42;;;;;;;1.38;1.00;;;;;;;23.41;43.47;98724.41;2064321;28;20512;-63
2023/09/24 02:37:45;;;;;;;1.25;0.80;;;;;;;23.44;43.37;98721.22;2064751;28;20124;-63
2023/09/24 02:38:47;;;;;;;0.85;0.68;;;;;;;23.40;42.83;98720.03;2063185;28;20050;-62
2023/09/24 02:39:47;;;;;;;1.90;0.75;;;;;;;23.46;43.36;98723.69;2062035;28;20057;-63
2023/09/24 02:40:51;;;;;;;3.45;0.60;;;;;;;23.44;43.41;98723.13;2064987;28;20053;-62
2023/09/24 02:41:52;;;;;;;0.88;0.80;;;;;;;23.40;42.74;98720.03;2063979;28;20045;-62
2023/09/24 02:42:54;;;;;;;2.05;1.02;;;;;;;23.37;42.31;98718.66;2063062;28;20085;-62
2023/09/24 02:43:56;;;;;;;4.32;1.23;;;;;;;23.41;42.58;98716.28;2062215;28;20460;-63
2023/09/24 02:44:57;;;;;;;3.28;0.63;;;;;;;23.40;43.05;98712.75;2063834;28;20766;-62
2023/09/24 02:45:59;;;;;;;3.80;2.45;;;;;;;23.41;42.97;98719.00;2063840;28;20057;-62
2023/09/24 02:47:00;;;;;;;3.13;0.80;;;;;;;23.39;42.45;98718.41;2061951;28;20054;-62
2023/09/24 02:48:04;;;;;;;3.30;1.10;;;;;;;23.37;42.68;98715.94;2063793;28;20084;-62
2023/09/24 02:49:06;;;;;;;2.65;1.00;;;;;;;23.39;44.27;98721.91;2063664;28;20042;-62
2023/09/24 02:50:13;;;;;;;1.30;0.85;;;;;;;23.43;44.61;98725.00;2062968;28;20108;-62
2023/09/24 02:51:14;;;;;;;2.58;1.48;;;;;;;23.41;44.64;98722.53;2063735;28;21751;-62
2023/09/24 02:52:15;;;;;;;1.45;0.68;;;;;;;23.41;44.24;98727.13;2062048;28;20053;-63
2023/09/24 02:53:17;;;;;;;0.68;0.43;;;;;;;23.38;44.21;98723.00;2062851;28;20614;-62
2023/09/24 02:54:18;;;;;;;2.28;0.73;;;;;;;23.39;42.99;98731.94;2061500;28;20046;-62
2023/09/24 02:55:20;;;;;;;3.85;1.10;;;;;;;23.42;43.19;98729.56;2065587;28;20524;-62
2023/09/24 02:56:22;;;;;;;1.73;0.93;;;;;;;23.40;44.49;98736.28;2064030;28;20076;-63
2023/09/24 02:57:24;;;;;;;3.45;0.70;;;;;;;23.39;43.32;98735.44;2064312;28;20500;-62
2023/09/24 02:58:25;;;;;;;4.00;1.67;;;;;;;23.43;43.64;98727.72;2066261;28;20053;-62
2023/09/24 02:59:28;;;;;;;1.58;0.68;;;;;;;23.46;45.08;98734.50;2064941;28;20469;-63
2023/09/24 03:00:34;;;;;;;5.45;1.30;;;;;;;23.48;43.23;98727.81;2064084;28;20054;-62
2023/09/24 03:01:36;;;;;;;2.38;1.08;;;;;;;23.42;44.32;98734.97;2064371;28;20149;-63
2023/09/24 03:02:38;;;;;;;2.35;1.23;;;;;;;23.40;44.25;98731.72;2063849;28;20050;-62
2023/09/24 03:03:40;;;;;;;3.53;0.90;;;;;;;23.41;44.81;98737.94;2062519;28;20528;-62
2023/09/24 03:04:42;;;;;;;0.88;0.68;;;;;;;23.44;43.75;98731.25;2063922;28;20049;-62
2023/09/24 03:05:44;;;;;;;3.53;1.38;;;;;;;23.46;45.06;98727.25;2062724;28;20488;-63
2023/09/24 03:06:45;;;;;;;1.38;0.88;;;;;;;23.47;44.35;98726.19;2064280;28;20046;-63
2023/09/24 03:07:47;;;;;;;3.17;0.73;;;;;;;23.42;43.19;98726.88;2059723;28;21652;-63
2023/09/24 03:08:49;;;;;;;2.35;0.85;;;;;;;23.41;43.49;98724.41;2059727;28;20050;-62
2023/09/24 03:09:53;;;;;;;2.22;1.00;;;;;;;23.38;44.20;98728.41;2064348;28;20066;-63
2023/09/24 03:10:55;;;;;;;1.20;0.70;;;;;;;23.39;43.09;98723.81;2062619;28;20056;-63
2023/09/24 03:11:57;;;;;;;1.33;0.73;;;;;;;23.37;43.84;98726.75;2067680;28;20061;-63
2023/09/24 03:12:59;;;;;;;4.88;1.35;;;;;;;23.38;43.19;98731.09;2066693;28;20092;-63
2023/09/24 03:14:00;;;;;;;1.65;1.02;;;;;;;23.33;43.17;98730.97;2065010;28;20054;-62
2023/09/24 03:15:03;;;;;;;3.33;1.02;;;;;;;23.36;43.22;98730.50;2063599;28;20066;-62
2023/09/24 03:16:05;;;;;;;4.45;0.80;;;;;;;23.36;43.19;98729.69;2067484;28;20053;-63
2023/09/24 03:17:07;;;;;;;6.78;1.65;;;;;;;23.38;43.23;98724.88;2065202;28;20057;-61
2023/09/24 03:18:08;;;;;;;3.08;1.23;;;;;;;23.35;42.50;98733.47;2066719;28;20050;-62
2023/09/24 03:19:10;;;;;;;2.85;1.05;;;;;;;23.33;44.06;98730.16;2066085;28;20135;-63
2023/09/24 03:20:14;;;;;;;5.70;1.10;;;;;;;23.34;43.84;98737.22;2063395;28;20145;-63
2023/09/24 03:21:16;;;;;;;3.08;1.13;;;;;;;23.35;42.98;98734.28;2064296;28;20058;-63
2023/09/24 03:22:17;;;;;;;1.60;1.10;;;;;;;23.37;45.44;98743.00;2066356;28;20042;-63
2023/09/24 03:23:20;;;;;;;3.75;1.52;;;;;;;23.38;44.12;98741.13;2063968;28;20073;-62
2023/09/24 03:24:21;;;;;;;2.50;1.08;;;;;;;23.37;45.08;98740.28;2061803;28;20811;-62
2023/09/24 03:25:26;;;;;;;4.38;1.40;;;;;;;23.40;44.69;98744.38;2063428;28;20085;-63
2023/09/24 03:26:26;;;;;;;1.90;0.95;;;;;;;23.41;44.48;98741.47;2056484;28;20050;-62
2023/09/24 03:27:30;;;;;;;2.40;1.02;;;;;;;23.44;45.31;98736.66;2063031;28;20474;-62
2023/09/24 03:28:31;;;;;;;1.20;0.65;;;;;;;23.42;43.61;98728.75;2063504;28;20417;-62
2023/09/24 03:29:32;;;;;;;2.35;1.00;;;;;;;23.39;43.66;98735.44;2058156;28;20132;-63
2023/09/24 03:30:33;;;;;;;2.83;1.08;;;;;;;23.41;45.11;98730.63;2060588;28;20062;-63
2023/09/24 03:31:38;;;;;;;3.22;0.88;;;;;;;23.44;45.37;98726.66;2063533;28;20050;-62
2023/09/24 03:32:39;;;;;;;2.90;1.13;;;;;;;23.40;44.86;98729.00;2062198;28;20073;-63
2023/09/24 03:33:41;;;;;;;3.25;0.93;;;;;;;23.40;44.99;98725.44;2064472;28;20539;-62
2023/09/24 03:34:44;;;;;;;2.17;1.23;;;;;;;23.42;44.73;98726.88;2063947;28;20042;-63
2023/09/24 03:35:47;;;;;;;3.90;1.42;;;;;;;23.41;45.19;98732.53;2062734;28;20049;-63
2023/09/24 03:36:49;;;;;;;5.30;1.02;;;;;;;23.42;45.42;98729.56;2065543;28;20053;-63
2023/09/24 03:37:50;;;;;;;3.45;1.27;;;;;;;23.42;43.11;98739.59;2061215;28;20060;-63
2023/09/24 03:38:52;;;;;;;3.88;1.50;;;;;;;23.41;45.02;98732.53;2063226;28;21414;-63
2023/09/24 03:39:56;;;;;;;3.38;1.00;;;;;;;23.44;43.69;98731.25;2064842;28;20055;-62
2023/09/24 03:40:58;;;;;;;4.97;1.27;;;;;;;23.38;44.42;98738.41;2061973;28;20081;-63
2023/09/24 03:41:59;;;;;;;3.25;1.73;;;;;;;23.36;45.15;98735.09;2059706;28;20536;-63
2023/09/24 03:43:03;;;;;;;5.78;1.42;;;;;;;23.36;43.47;98733.22;2061246;28;20053;-63
2023/09/24 03:44:04;;;;;;;6.43;1.05;;;;;;;23.36;44.63;98730.50;2062329;28;20053;-62
2023/09/24 03:45:08;;;;;;;2.30;0.95;;;;;;;23.42;45.20;98729.56;2059215;28;20054;-62
2023/09/24 03:46:09;;;;;;;4.45;1.10;;;;;;;23.42;45.64;98734.97;2061941;28;20054;-62
2023/09/24 03:47:11;;;;;;;4.20;1.08;;;;;;;23.42;45.44;98740.41;2066236;28;20050;-62
2023/09/24 03:48:13;;;;;;;5.72;1.10;;;;;;;23.37;44.36;98751.13;2065358;28;20060;-63
2023/09/24 03:49:14;;;;;;;4.80;1.38;;;;;;;23.40;44.45;98747.94;2064117;28;20413;-63
2023/09/24 03:50:17;;;;;;;2.15;1.35;;;;;;;23.41;45.67;98743.34;2061861;28;20054;-63
2023/09/24 03:51:19;;;;;;;1.80;1.05;;;;;;;23.35;43.97;98741.59;2066918;28;20080;-63
2023/09/24 03:52:20;;;;;;;1.90;0.68;;;;;;;23.38;45.03;98744.63;2062854;28;20528;-63
2023/09/24 03:53:22;;;;;;;2.78;1.48;;;;;;;23.39;44.81;98748.97;2064874;28;20086;-62
2023/09/24 03:54:23;;;;;;;2.33;1.13;;;;;;;23.42;45.41;98755.81;2059519;28;20058;-63
2023/09/24 03:55:25;;;;;;;9.57;2.53;;;;;;;23.40;45.14;98755.22;2066168;28;20129;-63
2023/09/24 03:56:26;;;;;;;1.83;0.93;;;;;;;23.40;43.60;98755.22;2060012;28;20092;-62
2023/09/24 03:57:27;;;;;;;1.52;0.90;;;;;;;23.38;43.41;98755.47;2062459;28;20112;-63
2023/09/24 03:58:30;;;;;;;1.98;0.93;;;;;;;23.43;45.73;98757.50;2060675;28;20057;-63
2023/09/24 03:59:35;;;;;;;4.45;0.98;;;;;;;23.46;45.62;98750.75;2064299;28;20056;-62
2023/09/24 04:00:37;;;;;;;1.70;1.00;;;;;;;23.46;45.50;98751.59;2064559;28;20133;-62
2023/09/24 04:01:39;;;;;;;2.60;1.15;;;;;;;23.46;45.29;98750.75;2064387;28;20105;-63
2023/09/24 04:02:41;;;;;;;5.55;1.20;;;;;;;23.50;45.54;98754.66;2065538;28;20065;-63
2023/09/24 04:03:42;;;;;;;4.28;0.93;;;;;;;23.52;45.55;98761.50;2066352;28;20100;-63
2023/09/24 04:04:44;;;;;;;2.67;1.05;;;;;;;23.49;45.21;98755.72;2066387;28;20127;-62
2023/09/24 04:05:44;;;;;;;4.75;1.02;;;;;;;23.52;45.57;98755.25;2065062;28;20061;-62
2023/09/24 04:06:46;;;;;;;4.88;1.08;;;;;;;23.52;45.35;98756.09;2066499;28;20531;-63
2023/09/24 04:07:49;;;;;;;2.35;0.82;;;;;;;23.54;45.60;98751.28;2067201;28;20050;-64
2023/09/24 04:08:51;;;;;;;7.75;1.42;;;;;;;23.53;45.59;98748.78;2058159;28;21281;-63
2023/09/24 04:09:54;;;;;;;1.83;1.05;;;;;;;23.54;45.62;98750.41;2061665;28;20057;-62
2023/09/24 04:10:56;;;;;;;3.67;0.95;;;;;;;23.52;45.00;98760.69;2063517;28;20149;-63
2023/09/24 04:11:57;;;;;;;1.65;1.00;;;;;;;23.49;45.31;98758.44;2066943;28;21807;-63
2023/09/24 04:13:00;;;;;;;2.60;0.90;;;;;;;23.50;45.71;98754.66;2063214;28;20104;-62
2023/09/24 04:14:03;;;;;;;4.88;1.15;;;;;;;23.48;45.79;98760.31;2066370;28;20054;-63
2023/09/24 04:15:06;;;;;;;4.57;0.73;;;;;;;23.49;45.97;98761.16;2064100;28;22181;-63
2023/09/24 04:16:09;;;;;;;5.85;1.33;;;;;;;23.54;45.75;98761.25;2066204;28;20054;-62
2023/09/24 04:17:11;;;;;;;6.25;1.10;;;;;;;23.48;45.68;98760.31;2064828;28;20135;-62
2023/09/24 04:18:13;;;;;;;3.83;1.15;;;;;;;23.51;46.01;98767.13;2065354;28;20503;-63
2023/09/24 04:19:16;;;;;;;2.53;0.90;;;;;;;23.52;45.99;98764.22;2067274;28;20057;-62
2023/09/24 04:20:17;;;;;;;5.40;1.08;;;;;;;23.55;45.74;98765.63;2064535;28;20054;-62
2023/09/24 04:21:20;;;;;;;1.65;0.85;;;;;;;23.57;45.38;98763.53;2061886;28;20058;-63
2023/09/24 04:22:22;;;;;;;4.85;0.70;;;;;;;23.57;45.85;98764.34;2065089;28;20058;-63
2023/09/24 04:23:24;;;;;;;2.45;1.42;;;;;;;23.60;45.75;98763.06;2061494;28;20096;-63
2023/09/24 04:24:26;;;;;;;4.22;1.10;;;;;;;23.58;45.58;98770.56;2064529;28;20414;-63
2023/09/24 04:25:27;;;;;;;2.45;1.25;;;;;;;23.59;45.89;98766.78;2064157;28;20058;-62
2023/09/24 04:26:29;;;;;;;3.15;1.30;;;;;;;23.58;45.72;98765.97;2064554;28;20104;-64
2023/09/24 04:27:29;;;;;;;1.60;1.10;;;;;;;23.57;45.81;98768.94;2064056;28;20614;-62
2023/09/24 04:28:32;;;;;;;3.50;1.05;;;;;;;23.57;45.93;98758.94;2062177;28;20060;-63
2023/09/24 04:29:34;;;;;;;5.47;0.88;;;;;;;23.58;45.77;98765.97;2064879;28;20049;-62
2023/09/24 04:30:36;;;;;;;1.92;0.68;;;;;;;23.54;45.95;98766.66;2063412;28;20050;-62
2023/09/24 04:31:37;;;;;;;0.82;0.73;;;;;;;23.55;46.08;98763.75;2066137;28;20052;-62
2023/09/24 04:32:40;;;;;;;2.15;0.93;;;;;;;23.55;45.90;98765.63;2067796;28;20104;-63
2023/09/24 04:33:41;;;;;;;1.05;0.85;;;;;;;23.54;45.84;98766.66;2067777;28;20647;-62
2023/09/24 04:34:44;;;;;;;0.75;0.60;;;;;;;23.52;45.64;98772.31;2065094;28;20049;-63
2023/09/24 04:35:45;;;;;;;1.60;0.82;;;;;;;23.51;45.89;98757.13;2065586;28;20500;-62
2023/09/24 04:36:50;;;;;;;2.65;1.02;;;;;;;23.50;45.46;98765.50;2065529;28;20042;-63
2023/09/24 04:37:51;;;;;;;5.78;0.77;;;;;;;23.45;46.09;98759.94;2064879;28;20081;-63
2023/09/24 04:38:53;;;;;;;1.02;0.73;;;;;;;23.45;46.34;98765.34;2061005;28;20053;-62
2023/09/24 04:39:54;;;;;;;2.92;0.90;;;;;;;23.48;45.57;98762.19;2063387;28;20054;-62
2023/09/24 04:40:57;;;;;;;1.67;1.15;;;;;;;23.50;46.01;98762.78;2064931;28;20176;-63
2023/09/24 04:41:58;;;;;;;2.90;0.90;;;;;;;23.48;45.75;98760.31;2065988;28;20088;-62
2023/09/24 04:43:00;;;;;;;2.30;1.00;;;;;;;23.46;45.31;98764.28;2065994;28;20054;-62
2023/09/24 04:44:01;;;;;;;1.13;0.60;;;;;;;23.48;45.24;98760.31;2063604;28;20058;-62
2023/09/24 04:45:06;;;;;;;3.95;1.88;;;;;;;23.42;45.33;98761.22;2066579;28;20604;-62
2023/09/24 04:46:07;;;;;;;4.53;0.88;;;;;;;23.40;44.45;98768.75;2065903;28;20045;-62
2023/09/24 04:47:09;;;;;;;1.85;0.80;;;;;;;23.41;46.05;98773.94;2064870;28;20046;-62
2023/09/24 04:48:10;;;;;;;1.17;0.95;;;;;;;23.42;45.25;98767.47;2066232;28;20093;-62
2023/09/24 04:49:12;;;;;;;2.08;0.75;;;;;;;23.42;44.92;98772.06;2063791;28;20156;-62
2023/09/24 04:50:13;;;;;;;2.28;0.98;;;;;;;23.42;45.19;98767.47;2064589;28;20062;-61
2023/09/24 04:51:15;;;;;;;1.70;0.93;;;;;;;23.42;45.34;98770.16;2064353;28;20416;-62
2023/09/24 04:52:16;;;;;;;5.15;0.93;;;;;;;23.41;45.95;98776.66;2063659;28;20054;-62
2023/09/24 04:53:18;;;;;;;7.80;1.67;;;;;;;23.38;44.73;98779.00;2067923;28;20046;-62